Terminal Aerodrome Forecast
Issued by NWS Boston, MA

Current Version | Previous Version | Text Only | Print | Product List | Glossary On
Versions: 1 2 3 4 5 6 7 8 9 10 11 12 13 14 15 16 17 18 19 20 21 22 23 24 25 26 27 28 29 30 31 32 33 34 35 36 37 38 39 40 41 42 43 44 45 46 47 48 49 50
000
FTUS41 KBOX 280522
TAFBDL
TAF
KBDL 280522Z 2806/2912 33006KT P6SM OVC050
     FM281100 35007KT P6SM OVC020
     FM281400 35008KT 3SM -SHSN BR OVC015
     FM281800 35009KT 1SM -SHSNRA BR OVC015
     FM282100 34009KT P6SM OVC015=

USA.gov is the U.S. government's official web portal to all federal, state and local government web resources and services.